AAL2610 KDCA-KPWM
Flight info
| Callsign | AAL2610 |
|---|---|
| Flight time | N/A |
| Altitude | 37000 |
| Route | SOOKI6 SWANN BROSS Q419 RBV Q22 LLUND BDR SCOGS3 |
| Aircraft | A321/M-SDE3FGHIRWY/LB1 |
Departure
| Time | N/A |
|---|---|
| Airport | Ronald Reagan Washington National Airport (KDCA) |
Arrival
| Time | 2026-05-07 12:28 |
|---|---|
| Airport | Portland International Jetport (KPWM) |
| Time | Latitude | Longitude | Altitude | Speed | Heading |
|---|---|---|---|---|---|
| 2026-05-07 12:14 | 42.88797 | -70.50745 | 15570 ft | 395 kts | 18° |
| 2026-05-07 12:14 | 42.91312 | -70.49164 | 15159 ft | 392 kts | 18° |
| 2026-05-07 12:14 | 42.93779 | -70.47612 | 14756 ft | 389 kts | 19° |
| 2026-05-07 12:14 | 42.96192 | -70.46090 | 14363 ft | 386 kts | 19° |
| 2026-05-07 12:15 | 42.98640 | -70.44538 | 14109 ft | 378 kts | 19° |
| 2026-05-07 12:15 | 43.00978 | -70.43049 | 13748 ft | 375 kts | 19° |
| 2026-05-07 12:15 | 43.03298 | -70.41299 | 13348 ft | 377 kts | 27° |
| 2026-05-07 12:15 | 43.05473 | -70.39408 | 12969 ft | 375 kts | 27° |
| 2026-05-07 12:16 | 43.07670 | -70.37505 | 12569 ft | 372 kts | 27° |
| 2026-05-07 12:16 | 43.09853 | -70.35612 | 12178 ft | 370 kts | 27° |
| 2026-05-07 12:16 | 43.12023 | -70.33727 | 11787 ft | 368 kts | 27° |
| 2026-05-07 12:16 | 43.14174 | -70.31856 | 11387 ft | 365 kts | 27° |
| 2026-05-07 12:17 | 43.16313 | -70.29998 | 10986 ft | 363 kts | 28° |
| 2026-05-07 12:17 | 43.18433 | -70.28150 | 10642 ft | 359 kts | 28° |
| 2026-05-07 12:17 | 43.20525 | -70.26315 | 10319 ft | 354 kts | 28° |
| 2026-05-07 12:17 | 43.22556 | -70.24523 | 10192 ft | 342 kts | 29° |
| 2026-05-07 12:18 | 43.24530 | -70.22779 | 9976 ft | 335 kts | 28° |
| 2026-05-07 12:18 | 43.26483 | -70.21063 | 9667 ft | 331 kts | 28° |
| 2026-05-07 12:18 | 43.28415 | -70.19391 | 9381 ft | 326 kts | 28° |
| 2026-05-07 12:18 | 43.30325 | -70.17751 | 9065 ft | 322 kts | 28° |
| 2026-05-07 12:19 | 43.32214 | -70.16131 | 8763 ft | 318 kts | 28° |
| 2026-05-07 12:19 | 43.34094 | -70.14586 | 8317 ft | 311 kts | 27° |
| 2026-05-07 12:19 | 43.35961 | -70.13114 | 7728 ft | 307 kts | 26° |
| 2026-05-07 12:19 | 43.37797 | -70.11690 | 7241 ft | 299 kts | 26° |
| 2026-05-07 12:20 | 43.39595 | -70.10298 | 7110 ft | 296 kts | 26° |
| 2026-05-07 12:20 | 43.41381 | -70.08912 | 6849 ft | 294 kts | 27° |
| 2026-05-07 12:20 | 43.43149 | -70.07531 | 6560 ft | 291 kts | 27° |
| 2026-05-07 12:20 | 43.44902 | -70.06150 | 6274 ft | 289 kts | 27° |
| 2026-05-07 12:21 | 43.46636 | -70.04779 | 5987 ft | 286 kts | 27° |
| 2026-05-07 12:21 | 43.48380 | -70.03401 | 5338 ft | 296 kts | 27° |
| 2026-05-07 12:21 | 43.50200 | -70.01958 | 4365 ft | 304 kts | 28° |
| 2026-05-07 12:21 | 43.51971 | -70.00541 | 4039 ft | 280 kts | 28° |
| 2026-05-07 12:22 | 43.53600 | -69.99243 | 3919 ft | 266 kts | 25° |
| 2026-05-07 12:22 | 43.55319 | -69.98385 | 3829 ft | 261 kts | 8° |
| 2026-05-07 12:22 | 43.57063 | -69.98243 | 3822 ft | 243 kts | 352° |
| 2026-05-07 12:22 | 43.58613 | -69.98696 | 3848 ft | 216 kts | 339° |
| 2026-05-07 12:23 | 43.59923 | -69.99574 | 3853 ft | 206 kts | 326° |
| 2026-05-07 12:23 | 43.60994 | -70.00766 | 3843 ft | 190 kts | 314° |
| 2026-05-07 12:23 | 43.61796 | -70.02141 | 3843 ft | 182 kts | 303° |
| 2026-05-07 12:23 | 43.62375 | -70.03687 | 3703 ft | 181 kts | 292° |
| 2026-05-07 12:24 | 43.62713 | -70.05350 | 3493 ft | 180 kts | 281° |
| 2026-05-07 12:24 | 43.62846 | -70.07070 | 3262 ft | 180 kts | 277° |
| 2026-05-07 12:24 | 43.62962 | -70.08792 | 3029 ft | 180 kts | 278° |
| 2026-05-07 12:24 | 43.63081 | -70.10510 | 2785 ft | 180 kts | 278° |
| 2026-05-07 12:25 | 43.63197 | -70.12197 | 2550 ft | 173 kts | 277° |
| 2026-05-07 12:25 | 43.63306 | -70.13794 | 2344 ft | 162 kts | 277° |
| 2026-05-07 12:25 | 43.63410 | -70.15338 | 2120 ft | 160 kts | 277° |
| 2026-05-07 12:25 | 43.63510 | -70.16858 | 1916 ft | 157 kts | 276° |
| 2026-05-07 12:26 | 43.63607 | -70.18294 | 1710 ft | 145 kts | 277° |
| 2026-05-07 12:26 | 43.63705 | -70.19657 | 1518 ft | 141 kts | 277° |
| 2026-05-07 12:26 | 43.63802 | -70.21000 | 1309 ft | 140 kts | 276° |
| 2026-05-07 12:26 | 43.63899 | -70.22332 | 1145 ft | 139 kts | 276° |
| 2026-05-07 12:27 | 43.63992 | -70.23663 | 939 ft | 139 kts | 275° |
| 2026-05-07 12:27 | 43.64069 | -70.24993 | 735 ft | 139 kts | 276° |
| 2026-05-07 12:27 | 43.64158 | -70.26315 | 570 ft | 139 kts | 276° |
| 2026-05-07 12:27 | 43.64252 | -70.27640 | 371 ft | 138 kts | 276° |
| 2026-05-07 12:28 | 43.64339 | -70.28964 | 210 ft | 139 kts | 276° |
| 2026-05-07 12:28 | 43.64430 | -70.30286 | 66 ft | 134 kts | 275° |
| 2026-05-07 12:28 | 43.64503 | -70.31389 | 64 ft | 84 kts | 276° |
| 2026-05-07 12:28 | 43.64528 | -70.31736 | 76 ft | 26 kts | 276° |
| 2026-05-07 12:29 | 43.64542 | -70.31940 | 78 ft | 21 kts | 275° |
| 2026-05-07 12:29 | 43.64576 | -70.32085 | 83 ft | 14 kts | 332° |
| 2026-05-07 12:29 | 43.64658 | -70.32071 | 84 ft | 11 kts | 61° |
| 2026-05-07 12:29 | 43.64656 | -70.31964 | 72 ft | 13 kts | 95° |
| 2026-05-07 12:30 | 43.64647 | -70.31828 | 67 ft | 16 kts | 95° |
| 2026-05-07 12:30 | 43.64634 | -70.31661 | 68 ft | 19 kts | 97° |
| 2026-05-07 12:30 | 43.64618 | -70.31469 | 72 ft | 22 kts | 95° |
| 2026-05-07 12:30 | 43.64615 | -70.31290 | 69 ft | 13 kts | 59° |
| 2026-05-07 12:31 | 43.64654 | -70.31298 | 66 ft | 5 kts | 315° |
| 2026-05-07 12:31 | 43.64681 | -70.31291 | 70 ft | 5 kts | 39° |
| 2026-05-07 12:31 | 43.64700 | -70.31262 | 70 ft | 3 kts | 50° |
| 2026-05-07 12:31 | 43.64706 | -70.31253 | 70 ft | 0 kts | 50° |